createdAt,value
2018-05-24T00:00:45.348Z,21.07
2018-05-24T00:01:45.496Z,21.11
2018-05-24T00:02:45.677Z,21.12
2018-05-24T00:03:45.852Z,21.14
2018-05-24T00:04:46.033Z,21.12
2018-05-24T00:05:46.219Z,21.22
2018-05-24T00:06:46.398Z,21.14
2018-05-24T00:07:46.584Z,21.21
2018-05-24T00:08:46.754Z,21.15
2018-05-24T00:09:46.936Z,21.21
2018-05-24T00:10:47.129Z,21.29
2018-05-24T00:11:47.324Z,21.22
2018-05-24T00:12:47.508Z,21.24
2018-05-24T00:13:47.690Z,21.30
2018-05-24T00:14:47.865Z,21.20
2018-05-24T00:15:48.043Z,21.30
2018-05-24T00:16:48.224Z,21.15
2018-05-24T00:17:48.404Z,21.15
2018-05-24T00:18:48.585Z,21.20
2018-05-24T00:19:48.776Z,21.21
2018-05-24T00:20:48.946Z,21.21
2018-05-24T00:21:49.123Z,21.17
2018-05-24T00:22:49.313Z,21.17
2018-05-24T00:23:49.507Z,21.25
2018-05-24T00:24:49.688Z,21.21
2018-05-24T00:25:49.882Z,21.24
2018-05-24T00:26:50.061Z,21.25
2018-05-24T00:27:50.248Z,21.20
2018-05-24T00:28:50.424Z,21.15
2018-05-24T00:29:50.613Z,21.20
2018-05-24T00:30:50.789Z,21.09
2018-05-24T00:31:50.975Z,21.11
2018-05-24T00:32:51.156Z,21.06
2018-05-24T00:33:51.337Z,21.09
2018-05-24T00:34:51.517Z,21.05
2018-05-24T00:35:51.697Z,21.03
2018-05-24T00:36:51.924Z,21.02
2018-05-24T00:37:52.066Z,20.97
2018-05-24T00:38:52.249Z,20.93
2018-05-24T00:39:52.441Z,20.92
2018-05-24T00:40:52.619Z,20.87
2018-05-24T00:41:52.802Z,20.88
2018-05-24T00:42:52.997Z,20.84
2018-05-24T00:43:53.177Z,20.84
2018-05-24T00:44:53.355Z,20.88
2018-05-24T00:45:53.531Z,20.85
2018-05-24T00:46:53.725Z,20.92
2018-05-24T00:47:53.916Z,20.84
2018-05-24T00:48:54.105Z,20.80
2018-05-24T00:49:54.289Z,20.69
2018-05-24T00:50:54.475Z,20.59
2018-05-24T00:51:54.667Z,20.59
2018-05-24T00:52:54.846Z,20.59
2018-05-24T00:53:55.023Z,20.44
2018-05-24T00:54:55.198Z,20.28
2018-05-24T00:55:55.375Z,20.18
2018-05-24T00:56:55.563Z,20.14
2018-05-24T00:57:55.737Z,20.09
2018-05-24T00:58:55.913Z,20.14
2018-05-24T00:59:56.100Z,20.06
2018-05-24T01:00:56.279Z,20.18
2018-05-24T01:01:56.461Z,20.07
2018-05-24T01:02:56.641Z,20.03
2018-05-24T01:03:56.830Z,20.09
2018-05-24T01:04:57.006Z,20.02
2018-05-24T01:05:57.187Z,19.91
2018-05-24T01:06:57.369Z,19.82
2018-05-24T01:07:57.546Z,19.79
2018-05-24T01:08:57.742Z,19.70
2018-05-24T01:09:57.921Z,19.73
2018-05-24T01:10:58.101Z,19.70
2018-05-24T01:11:58.278Z,19.63
2018-05-24T01:12:58.464Z,19.51
2018-05-24T01:13:58.656Z,19.34
2018-05-24T01:14:58.840Z,19.40
2018-05-24T01:15:59.023Z,19.30
2018-05-24T01:16:59.198Z,19.36
2018-05-24T01:17:59.385Z,19.26
2018-05-24T01:18:59.569Z,19.14
2018-05-24T01:19:59.751Z,19.18
2018-05-24T01:20:59.928Z,19.16
2018-05-24T01:22:00.106Z,19.16
2018-05-24T01:23:00.292Z,19.08
2018-05-24T01:24:00.467Z,19.14
2018-05-24T01:25:00.650Z,18.95
2018-05-24T01:26:00.830Z,18.89
2018-05-24T01:27:01.016Z,18.90
2018-05-24T01:28:01.207Z,18.84
2018-05-24T01:29:01.387Z,18.86
2018-05-24T01:30:01.569Z,18.80
2018-05-24T01:31:01.747Z,18.81
2018-05-24T01:32:01.927Z,18.77
2018-05-24T01:33:02.120Z,18.74
2018-05-24T01:34:02.300Z,18.70
2018-05-24T01:35:02.485Z,18.71
2018-05-24T01:36:02.677Z,18.60
2018-05-24T01:37:02.859Z,18.56
2018-05-24T01:38:03.036Z,18.58
2018-05-24T01:39:03.212Z,18.44
2018-05-24T01:40:03.395Z,18.49
2018-05-24T01:41:03.575Z,18.45
2018-05-24T01:42:03.762Z,18.41
2018-05-24T01:43:03.940Z,18.40
2018-05-24T01:44:04.125Z,18.31
2018-05-24T01:45:04.296Z,18.33
2018-05-24T01:46:04.484Z,18.29
2018-05-24T01:47:04.664Z,18.23
2018-05-24T01:48:04.849Z,18.22
2018-05-24T01:49:05.035Z,18.23
2018-05-24T01:50:05.217Z,18.10
2018-05-24T01:51:05.395Z,18.11
2018-05-24T01:52:05.571Z,18.13
2018-05-24T01:53:05.757Z,18.10
2018-05-24T01:54:05.935Z,18.13
2018-05-24T01:55:06.120Z,18.22
2018-05-24T01:56:06.301Z,18.19
2018-05-24T01:57:06.477Z,18.16
2018-05-24T01:58:06.658Z,18.13
2018-05-24T01:59:06.836Z,18.08
2018-05-24T02:00:07.020Z,18.15
2018-05-24T02:01:07.197Z,18.15
2018-05-24T02:02:07.375Z,18.26
2018-05-24T02:03:07.556Z,18.22
2018-05-24T02:04:07.730Z,18.11
2018-05-24T02:05:07.926Z,18.05
2018-05-24T02:06:08.104Z,18.04
2018-05-24T02:07:08.288Z,18.08
2018-05-24T02:08:08.468Z,18.01
2018-05-24T02:09:08.649Z,18.04
2018-05-24T02:10:08.831Z,17.95
2018-05-24T02:11:09.010Z,17.95
2018-05-24T02:12:09.198Z,17.94
2018-05-24T02:13:09.382Z,17.92
2018-05-24T02:14:09.561Z,17.94
2018-05-24T02:15:09.742Z,17.98
2018-05-24T02:16:09.923Z,17.87
2018-05-24T02:17:10.101Z,17.83
2018-05-24T02:18:10.283Z,17.82
2018-05-24T02:19:10.466Z,17.80
2018-05-24T02:20:10.652Z,17.70
2018-05-24T02:21:10.843Z,17.80
2018-05-24T02:22:11.025Z,17.82
2018-05-24T02:23:11.201Z,17.86
2018-05-24T02:24:11.391Z,17.85
2018-05-24T02:25:11.567Z,17.85
2018-05-24T02:26:11.751Z,17.86
2018-05-24T02:27:11.932Z,17.94
2018-05-24T02:28:12.112Z,17.83
2018-05-24T02:29:12.338Z,17.86
2018-05-24T02:30:12.473Z,17.89
2018-05-24T02:31:12.661Z,17.89
2018-05-24T02:32:12.848Z,17.85
2018-05-24T02:33:13.029Z,17.83
2018-05-24T02:34:13.209Z,17.83
2018-05-24T02:35:13.397Z,17.85
2018-05-24T02:36:13.569Z,17.85
2018-05-24T02:37:13.773Z,17.86
2018-05-24T02:38:13.951Z,17.87
2018-05-24T02:39:14.130Z,17.86
2018-05-24T02:40:14.308Z,17.86
2018-05-24T02:41:14.489Z,17.86
2018-05-24T02:42:14.667Z,17.85
2018-05-24T02:43:14.847Z,17.87
2018-05-24T02:44:15.021Z,17.95
2018-05-24T02:45:15.208Z,17.95
2018-05-24T02:46:15.388Z,17.92
2018-05-24T02:47:15.568Z,17.83
2018-05-24T02:48:15.751Z,17.83
2018-05-24T02:49:15.934Z,17.78
2018-05-24T02:50:16.122Z,17.82
2018-05-24T02:51:16.322Z,17.71
2018-05-24T02:52:16.506Z,17.72
2018-05-24T02:53:16.692Z,17.67
2018-05-24T02:54:16.869Z,17.78
2018-05-24T02:55:17.053Z,17.72
2018-05-24T02:56:17.260Z,17.80
2018-05-24T02:57:17.417Z,17.78
2018-05-24T02:58:17.596Z,17.76
2018-05-24T02:59:17.779Z,17.76
2018-05-24T03:00:17.963Z,17.82
2018-05-24T03:01:18.154Z,17.78
2018-05-24T03:02:18.331Z,17.79
2018-05-24T03:03:18.510Z,17.79
2018-05-24T03:04:18.690Z,17.78
2018-05-24T03:05:18.872Z,17.78
2018-05-24T03:06:19.053Z,17.74
2018-05-24T03:07:19.232Z,17.70
2018-05-24T03:08:19.412Z,17.64
2018-05-24T03:09:19.597Z,17.67
2018-05-24T03:10:19.790Z,17.63
2018-05-24T03:11:19.983Z,17.60
2018-05-24T03:12:20.162Z,17.54
2018-05-24T03:13:20.341Z,17.54
2018-05-24T03:14:20.581Z,17.49
2018-05-24T03:15:20.696Z,17.56
2018-05-24T03:16:20.870Z,17.52
2018-05-24T03:17:21.053Z,17.57
2018-05-24T03:18:21.233Z,17.51
2018-05-24T03:19:21.414Z,17.52
2018-05-24T03:20:21.592Z,17.56
2018-05-24T03:21:21.770Z,17.51
2018-05-24T03:22:21.953Z,17.48
2018-05-24T03:23:22.137Z,17.49
2018-05-24T03:24:22.318Z,17.51
2018-05-24T03:25:22.510Z,17.49
2018-05-24T03:26:22.684Z,17.45
2018-05-24T03:27:22.863Z,17.54
2018-05-24T03:28:23.040Z,17.51
2018-05-24T03:29:23.224Z,17.59
2018-05-24T03:30:23.403Z,17.60
2018-05-24T03:31:23.580Z,17.57
2018-05-24T03:32:23.757Z,17.42
2018-05-24T03:33:23.936Z,17.63
2018-05-24T03:34:24.116Z,17.49
2018-05-24T03:35:24.297Z,17.44
2018-05-24T03:36:24.482Z,17.41
2018-05-24T03:37:24.662Z,17.39
2018-05-24T03:38:24.859Z,17.51
2018-05-24T03:39:25.039Z,17.44
2018-05-24T03:40:25.218Z,17.48
2018-05-24T03:41:25.404Z,17.52
2018-05-24T03:42:25.579Z,17.59
2018-05-24T03:43:25.765Z,17.57
2018-05-24T03:44:25.944Z,17.56
2018-05-24T03:45:26.124Z,17.65
2018-05-24T03:46:26.307Z,17.63
2018-05-24T03:47:26.485Z,17.57
2018-05-24T03:48:26.664Z,17.60
2018-05-24T03:49:26.847Z,17.49
2018-05-24T03:50:27.018Z,17.59
2018-05-24T03:51:27.207Z,17.70
2018-05-24T03:52:27.385Z,17.67
2018-05-24T03:53:27.579Z,17.59
2018-05-24T03:54:27.754Z,17.63
2018-05-24T03:55:27.932Z,17.67
2018-05-24T03:56:28.132Z,17.68
2018-05-24T03:57:28.309Z,17.60
2018-05-24T03:58:28.485Z,17.64
2018-05-24T03:59:28.664Z,17.60
2018-05-24T04:00:28.848Z,17.59
2018-05-24T04:01:29.031Z,17.70
2018-05-24T04:02:29.205Z,17.82
2018-05-24T04:03:29.390Z,17.76
2018-05-24T04:04:29.577Z,17.79
2018-05-24T04:05:29.767Z,17.78
2018-05-24T04:06:29.979Z,17.85
2018-05-24T04:07:30.165Z,17.87
2018-05-24T04:08:30.341Z,17.80
2018-05-24T04:09:30.552Z,17.92
2018-05-24T04:10:30.721Z,17.92
2018-05-24T04:11:30.924Z,17.94
2018-05-24T04:12:31.121Z,17.98
2018-05-24T04:13:31.314Z,17.90
2018-05-24T04:14:31.502Z,17.95
2018-05-24T04:15:31.682Z,17.97
2018-05-24T04:16:31.871Z,17.89
2018-05-24T04:17:32.055Z,17.95
2018-05-24T04:18:32.251Z,17.95
2018-05-24T04:19:32.642Z,17.86
2018-05-24T04:20:32.607Z,17.92
2018-05-24T04:21:33.295Z,17.98
2018-05-24T04:22:32.973Z,17.95
2018-05-24T04:23:33.157Z,18.08
2018-05-24T04:24:33.357Z,18.00
2018-05-24T04:25:33.543Z,17.98
2018-05-24T04:26:33.729Z,18.11
2018-05-24T04:27:33.909Z,18.03
2018-05-24T04:28:34.093Z,18.05
2018-05-24T04:29:34.288Z,18.04
2018-05-24T04:30:34.467Z,18.13
2018-05-24T04:31:34.659Z,18.08
2018-05-24T04:32:34.867Z,18.15
2018-05-24T04:33:35.042Z,18.23
2018-05-24T04:34:35.227Z,18.16
2018-05-24T04:35:35.407Z,18.13
2018-05-24T04:36:35.597Z,18.10
2018-05-24T04:37:35.807Z,18.16
2018-05-24T04:38:35.987Z,18.18
2018-05-24T04:39:36.172Z,18.00
2018-05-24T04:40:36.353Z,18.13
2018-05-24T04:41:36.531Z,18.10
2018-05-24T04:42:36.716Z,18.11
2018-05-24T04:43:36.903Z,18.11
2018-05-24T04:44:37.105Z,18.11
2018-05-24T04:45:37.285Z,18.11
2018-05-24T04:46:37.475Z,18.10
2018-05-24T04:47:37.661Z,18.04
2018-05-24T04:48:37.834Z,18.01
2018-05-24T04:49:38.016Z,18.04
2018-05-24T04:50:38.215Z,17.97
2018-05-24T04:51:38.395Z,17.97
2018-05-24T04:52:38.571Z,18.11
2018-05-24T04:53:38.756Z,18.15
2018-05-24T04:54:38.940Z,18.01
2018-05-24T04:55:39.141Z,18.19
2018-05-24T04:56:39.335Z,18.10
2018-05-24T04:57:39.703Z,18.10
2018-05-24T04:58:39.630Z,18.25
2018-05-24T04:59:39.815Z,18.23
2018-05-24T05:00:40.021Z,18.25
2018-05-24T05:01:40.218Z,18.33
2018-05-24T05:02:40.394Z,18.29
2018-05-24T05:03:40.597Z,18.37
2018-05-24T05:04:40.781Z,18.50
2018-05-24T05:05:40.973Z,18.41
2018-05-24T05:06:41.164Z,18.38
2018-05-24T05:07:41.353Z,18.35
2018-05-24T05:08:41.540Z,18.43
2018-05-24T05:09:41.723Z,18.44
2018-05-24T05:10:41.925Z,18.55
2018-05-24T05:11:42.125Z,18.59
2018-05-24T05:12:42.485Z,18.59
2018-05-24T05:13:43.830Z,18.60
2018-05-24T05:14:43.640Z,18.70
2018-05-24T05:15:43.570Z,18.73
2018-05-24T05:16:43.168Z,18.84
2018-05-24T05:17:44.698Z,18.78
2018-05-24T05:18:43.748Z,18.78
2018-05-24T05:19:43.763Z,18.81
2018-05-24T05:20:43.959Z,18.89
2018-05-24T05:21:44.250Z,18.86
2018-05-24T05:22:44.300Z,18.75
2018-05-24T05:23:44.481Z,18.74
2018-05-24T05:24:44.709Z,18.73
2018-05-24T05:25:45.001Z,18.59
2018-05-24T05:26:45.625Z,18.66
2018-05-24T05:27:45.234Z,18.77
2018-05-24T05:28:45.590Z,18.77
2018-05-24T05:29:45.533Z,18.74
2018-05-24T05:30:45.931Z,18.65
2018-05-24T05:31:45.835Z,18.80
2018-05-24T05:32:46.012Z,18.92
2018-05-24T05:33:46.292Z,19.02
2018-05-24T05:34:46.395Z,18.92
2018-05-24T05:35:46.585Z,19.02
2018-05-24T05:36:46.774Z,19.11
2018-05-24T05:37:46.961Z,18.90
2018-05-24T05:38:47.141Z,18.86
2018-05-24T05:39:47.319Z,18.93
2018-05-24T05:40:47.503Z,18.93
2018-05-24T05:41:47.678Z,19.16
2018-05-24T05:42:47.858Z,19.18
2018-05-24T05:43:48.050Z,19.07
2018-05-24T05:44:48.320Z,19.09
2018-05-24T05:45:48.412Z,19.11
2018-05-24T05:46:49.244Z,19.11
2018-05-24T05:47:49.074Z,19.16
2018-05-24T05:48:49.325Z,19.21
2018-05-24T05:49:51.551Z,19.22
2018-05-24T05:50:49.792Z,19.30
2018-05-24T05:51:52.230Z,19.22
2018-05-24T05:52:50.839Z,19.30
2018-05-24T05:53:51.058Z,19.16
2018-05-24T05:54:53.145Z,19.29
2018-05-24T05:55:52.804Z,19.39
2018-05-24T05:56:51.490Z,19.33
2018-05-24T05:57:54.321Z,19.30
2018-05-24T05:58:54.619Z,19.36
2018-05-24T05:59:51.596Z,19.49
2018-05-24T06:00:54.347Z,19.54
2018-05-24T06:01:53.259Z,19.45
2018-05-24T06:02:51.708Z,19.39
2018-05-24T06:03:53.357Z,19.39
2018-05-24T06:04:54.001Z,19.37
2018-05-24T06:05:51.854Z,19.41
2018-05-24T06:06:52.039Z,19.29
2018-05-24T06:07:52.218Z,19.41
2018-05-24T06:08:52.404Z,19.55
2018-05-24T06:09:52.582Z,19.58
2018-05-24T06:10:52.765Z,19.63
2018-05-24T06:11:52.947Z,19.56
2018-05-24T06:12:53.127Z,19.71
2018-05-24T06:13:53.355Z,19.71
2018-05-24T06:14:53.486Z,19.73
2018-05-24T06:15:53.675Z,19.67
2018-05-24T06:16:53.857Z,19.88
2018-05-24T06:17:54.040Z,19.85
2018-05-24T06:18:54.226Z,19.88
2018-05-24T06:19:54.402Z,19.94
2018-05-24T06:20:54.621Z,20.09
2018-05-24T06:21:54.803Z,20.06
2018-05-24T06:22:54.987Z,20.07
2018-05-24T06:23:55.172Z,20.13
2018-05-24T06:24:55.352Z,20.16
2018-05-24T06:25:55.564Z,20.22
2018-05-24T06:26:55.739Z,20.34
2018-05-24T06:27:55.918Z,20.26
2018-05-24T06:28:56.092Z,20.36
2018-05-24T06:29:56.273Z,20.37
2018-05-24T06:30:56.455Z,20.50
2018-05-24T06:31:56.635Z,20.59
2018-05-24T06:32:56.822Z,20.67
2018-05-24T06:33:57.010Z,20.74
2018-05-24T06:34:57.220Z,20.70
2018-05-24T06:35:57.408Z,20.80
2018-05-24T06:36:57.594Z,20.95
2018-05-24T06:37:57.778Z,20.92
2018-05-24T06:38:57.994Z,21.15
2018-05-24T06:39:58.352Z,21.21
2018-05-24T06:40:58.464Z,21.30
2018-05-24T06:41:58.578Z,21.35
2018-05-24T06:42:58.629Z,21.27
2018-05-24T06:43:58.822Z,21.22
2018-05-24T06:44:59.003Z,21.24
2018-05-24T06:45:59.189Z,21.42
2018-05-24T06:46:59.386Z,21.57
2018-05-24T06:47:59.584Z,22.30
2018-05-24T06:48:59.772Z,23.39
2018-05-24T06:50:00.322Z,24.66
2018-05-24T06:51:00.131Z,25.77
2018-05-24T06:52:00.308Z,26.70
2018-05-24T06:53:00.497Z,27.70
2018-05-24T06:54:00.685Z,28.29
2018-05-24T06:55:00.875Z,29.07
2018-05-24T06:56:01.115Z,29.14
2018-05-24T06:57:01.173Z,29.79
2018-05-24T06:58:01.377Z,30.27
2018-05-24T06:59:01.580Z,30.54
2018-05-24T07:00:01.860Z,30.59
2018-05-24T07:01:01.950Z,30.47
2018-05-24T07:02:02.142Z,31.22
2018-05-24T07:03:02.357Z,31.10
2018-05-24T07:04:02.567Z,29.79
2018-05-24T07:05:04.757Z,29.87
2018-05-24T07:06:03.001Z,30.83
2018-05-24T07:07:03.111Z,31.34
2018-05-24T07:08:03.300Z,31.52
2018-05-24T07:09:03.504Z,31.20
2018-05-24T07:10:03.688Z,29.66
2018-05-24T07:11:03.957Z,28.60
2018-05-24T07:12:04.100Z,27.70
2018-05-24T07:13:04.283Z,27.18
2018-05-24T07:14:04.474Z,26.07
2018-05-24T07:15:05.005Z,25.65
2018-05-24T07:16:04.819Z,25.29
2018-05-24T07:17:05.077Z,24.80
2018-05-24T07:18:05.141Z,24.32
2018-05-24T07:19:05.332Z,24.08
2018-05-24T07:20:05.528Z,23.62
2018-05-24T07:21:05.734Z,23.44
2018-05-24T07:22:05.956Z,23.25
2018-05-24T07:23:06.148Z,22.87
2018-05-24T07:24:06.332Z,22.91
2018-05-24T07:25:06.535Z,22.75
2018-05-24T07:26:06.716Z,22.57
2018-05-24T07:27:06.930Z,22.53
2018-05-24T07:28:07.120Z,22.57
2018-05-24T07:29:07.303Z,22.54
2018-05-24T07:30:07.495Z,22.59
2018-05-24T07:31:07.683Z,22.59
2018-05-24T07:32:07.891Z,22.63
2018-05-24T07:33:08.087Z,22.54
2018-05-24T07:34:08.282Z,22.75
2018-05-24T07:35:09.047Z,22.81
2018-05-24T07:36:08.663Z,22.94
2018-05-24T07:37:08.817Z,22.80
2018-05-24T07:38:08.927Z,22.48
2018-05-24T07:39:09.115Z,22.28
2018-05-24T07:40:10.304Z,22.20
2018-05-24T07:41:10.987Z,22.07
2018-05-24T07:42:09.620Z,22.20
2018-05-24T07:43:09.802Z,21.99
2018-05-24T07:44:09.988Z,21.95
2018-05-24T07:45:10.211Z,21.60
2018-05-24T07:46:10.362Z,21.45
2018-05-24T07:47:10.548Z,21.39
2018-05-24T07:48:10.729Z,21.39
2018-05-24T07:49:10.918Z,21.32
2018-05-24T07:50:11.110Z,21.14
2018-05-24T07:51:11.374Z,21.02
2018-05-24T07:52:11.540Z,21.00
2018-05-24T07:53:11.725Z,20.90
2018-05-24T07:54:13.032Z,20.99
2018-05-24T07:55:12.092Z,20.72
2018-05-24T07:56:12.279Z,20.67
2018-05-24T07:57:12.479Z,20.59
2018-05-24T07:58:12.698Z,20.67
2018-05-24T07:59:12.943Z,20.55
2018-05-24T08:00:13.107Z,20.60
2018-05-24T08:01:13.277Z,20.58
2018-05-24T08:02:13.472Z,20.55
2018-05-24T08:03:13.658Z,20.51
2018-05-24T08:04:13.842Z,20.47
2018-05-24T08:05:14.018Z,20.37
2018-05-24T08:06:14.202Z,20.21
2018-05-24T08:07:14.386Z,20.11
2018-05-24T08:08:14.580Z,20.06
2018-05-24T08:09:14.774Z,20.04
2018-05-24T08:10:14.981Z,20.11
2018-05-24T08:11:15.215Z,20.02
2018-05-24T08:12:15.636Z,19.92
2018-05-24T08:13:15.538Z,20.04
2018-05-24T08:14:15.715Z,20.06
2018-05-24T08:15:16.956Z,20.22
2018-05-24T08:16:17.244Z,20.29
2018-05-24T08:17:18.013Z,20.26
2018-05-24T08:18:18.654Z,20.44
2018-05-24T08:19:17.076Z,20.39
2018-05-24T08:20:16.868Z,20.34
2018-05-24T08:21:17.109Z,20.32
2018-05-24T08:22:17.173Z,20.39
2018-05-24T08:23:17.362Z,20.34
2018-05-24T08:24:17.541Z,20.34
2018-05-24T08:25:17.725Z,20.36
2018-05-24T08:26:17.934Z,20.29
2018-05-24T08:27:18.197Z,20.22
2018-05-24T08:28:18.245Z,20.26
2018-05-24T08:29:18.447Z,20.16
2018-05-24T08:30:18.627Z,20.00
2018-05-24T08:31:18.820Z,20.09
2018-05-24T08:32:19.024Z,20.02
2018-05-24T08:33:19.185Z,20.04
2018-05-24T08:34:19.363Z,19.96
2018-05-24T08:35:19.568Z,19.94
2018-05-24T08:36:19.738Z,20.06
2018-05-24T08:37:19.917Z,20.11
2018-05-24T08:38:20.094Z,20.16
2018-05-24T08:39:20.310Z,20.16
2018-05-24T08:40:20.511Z,20.06
2018-05-24T08:41:20.991Z,20.03
2018-05-24T08:42:20.798Z,20.09
2018-05-24T08:43:20.992Z,20.10
2018-05-24T08:44:21.176Z,20.06
2018-05-24T08:45:21.365Z,20.02
2018-05-24T08:46:21.617Z,20.02
2018-05-24T08:47:21.679Z,20.02
2018-05-24T08:48:21.865Z,19.91
2018-05-24T08:49:22.056Z,19.94
2018-05-24T08:50:22.242Z,19.96
2018-05-24T08:51:22.420Z,19.81
2018-05-24T08:52:22.607Z,19.86
2018-05-24T08:53:23.094Z,19.91
2018-05-24T08:54:23.019Z,19.99
2018-05-24T08:55:23.207Z,19.94
2018-05-24T08:56:23.396Z,20.10
2018-05-24T08:57:23.579Z,20.03
2018-05-24T08:58:23.924Z,19.95
2018-05-24T08:59:23.981Z,19.91
2018-05-24T09:00:24.173Z,19.88
2018-05-24T09:01:24.448Z,19.84
2018-05-24T09:02:24.526Z,19.77
2018-05-24T09:03:24.725Z,19.85
2018-05-24T09:04:24.907Z,19.92
2018-05-24T09:05:25.091Z,19.82
2018-05-24T09:06:25.388Z,19.81
2018-05-24T09:07:25.483Z,19.82
2018-05-24T09:08:25.718Z,19.81
2018-05-24T09:09:25.784Z,19.79
2018-05-24T09:10:26.128Z,19.76
2018-05-24T09:11:26.077Z,19.66
2018-05-24T09:12:26.262Z,19.63
2018-05-24T09:13:26.460Z,19.81
2018-05-24T09:14:26.661Z,19.73
2018-05-24T09:15:27.070Z,19.76
2018-05-24T09:16:27.010Z,19.84
2018-05-24T09:17:27.190Z,19.77
2018-05-24T09:18:27.404Z,19.58
2018-05-24T09:19:27.580Z,19.73
2018-05-24T09:20:27.770Z,19.73
2018-05-24T09:21:27.954Z,19.69
2018-05-24T09:22:28.138Z,19.81
2018-05-24T09:23:28.328Z,19.85
2018-05-24T09:24:28.524Z,19.82
2018-05-24T09:25:28.736Z,19.84
2018-05-24T09:26:28.933Z,19.74
2018-05-24T09:27:29.120Z,19.77
2018-05-24T09:28:29.302Z,19.79
2018-05-24T09:29:29.505Z,19.85
2018-05-24T09:30:29.670Z,19.81
2018-05-24T09:31:29.859Z,19.91
2018-05-24T09:32:30.508Z,19.84
2018-05-24T09:33:30.199Z,19.82
2018-05-24T09:34:30.385Z,19.81
2018-05-24T09:35:30.573Z,19.86
2018-05-24T09:36:30.748Z,19.92
2018-05-24T09:37:31.180Z,19.92
2018-05-24T09:38:31.274Z,19.88
2018-05-24T09:39:31.297Z,20.03
2018-05-24T09:40:31.483Z,20.06
2018-05-24T09:41:31.676Z,20.09
2018-05-24T09:42:31.870Z,20.07
2018-05-24T09:43:32.056Z,20.14
2018-05-24T09:44:32.466Z,20.21
2018-05-24T09:45:32.437Z,20.31
2018-05-24T09:46:32.668Z,20.36
2018-05-24T09:47:32.835Z,20.50
2018-05-24T09:48:34.611Z,20.60
2018-05-24T09:49:35.789Z,20.72
2018-05-24T09:50:35.879Z,20.80
2018-05-24T09:51:35.494Z,20.92
2018-05-24T09:52:38.340Z,20.95
2018-05-24T09:53:36.179Z,20.87
2018-05-24T09:54:34.138Z,20.95
2018-05-24T09:55:34.319Z,20.96
2018-05-24T09:56:34.512Z,20.87
2018-05-24T09:57:34.695Z,20.95
2018-05-24T09:58:34.888Z,20.96
2018-05-24T09:59:35.103Z,21.03
2018-05-24T10:00:35.346Z,21.27
2018-05-24T10:01:35.399Z,21.20
2018-05-24T10:02:35.587Z,21.14
2018-05-24T10:03:35.767Z,21.21
2018-05-24T10:04:36.022Z,21.22
2018-05-24T10:05:36.142Z,21.06
2018-05-24T10:06:36.332Z,21.12
2018-05-24T10:07:36.527Z,21.11
2018-05-24T10:08:36.720Z,21.11
2018-05-24T10:09:36.907Z,21.03
2018-05-24T10:10:37.506Z,21.02
2018-05-24T10:11:37.299Z,21.11
2018-05-24T10:12:37.474Z,21.14
2018-05-24T10:13:37.658Z,20.99
2018-05-24T10:14:37.848Z,21.03
2018-05-24T10:15:38.036Z,20.97
2018-05-24T10:16:38.213Z,21.05
2018-05-24T10:17:38.491Z,20.99
2018-05-24T10:18:38.547Z,21.18
2018-05-24T10:19:38.723Z,21.03
2018-05-24T10:20:38.907Z,21.07
2018-05-24T10:21:39.103Z,21.02
2018-05-24T10:22:39.300Z,20.93
2018-05-24T10:23:39.486Z,20.95
2018-05-24T10:24:39.663Z,20.85
2018-05-24T10:25:39.942Z,20.87
2018-05-24T10:26:40.053Z,20.92
2018-05-24T10:27:40.238Z,20.81
2018-05-24T10:28:40.428Z,20.75
2018-05-24T10:29:40.607Z,20.77
2018-05-24T10:30:40.795Z,20.74
2018-05-24T10:31:42.227Z,20.74
2018-05-24T10:32:41.163Z,20.78
2018-05-24T10:33:41.343Z,20.65
2018-05-24T10:34:41.543Z,20.47
2018-05-24T10:35:41.746Z,20.28
2018-05-24T10:36:41.990Z,20.26
2018-05-24T10:37:42.039Z,20.37
2018-05-24T10:38:42.232Z,20.31
2018-05-24T10:39:42.418Z,20.41
2018-05-24T10:40:42.598Z,20.47
2018-05-24T10:41:42.793Z,20.47
2018-05-24T10:42:42.983Z,20.32
2018-05-24T10:43:43.181Z,20.25
2018-05-24T10:44:43.360Z,20.37
2018-05-24T10:45:43.552Z,20.25
2018-05-24T10:46:43.740Z,20.16
2018-05-24T10:47:43.921Z,20.13
2018-05-24T10:48:44.100Z,20.10
2018-05-24T10:49:44.291Z,20.06
2018-05-24T10:50:44.475Z,20.00
2018-05-24T10:51:44.654Z,19.95
2018-05-24T10:52:44.833Z,19.92
2018-05-24T10:53:45.034Z,19.88
2018-05-24T10:54:46.436Z,19.91
2018-05-24T10:55:45.364Z,19.89
2018-05-24T10:56:45.602Z,19.82
2018-05-24T10:57:46.732Z,19.77
2018-05-24T10:58:47.591Z,19.82
2018-05-24T10:59:46.139Z,19.85
2018-05-24T11:00:46.365Z,19.79
2018-05-24T11:01:46.588Z,19.64
2018-05-24T11:02:46.656Z,19.62
2018-05-24T11:03:46.871Z,19.63
2018-05-24T11:04:47.110Z,19.54
2018-05-24T11:05:49.082Z,19.44
2018-05-24T11:06:47.310Z,19.47
2018-05-24T11:07:47.514Z,19.39
2018-05-24T11:08:47.733Z,19.44
2018-05-24T11:09:47.809Z,19.33
2018-05-24T11:10:47.979Z,19.33
2018-05-24T11:11:48.225Z,19.44
2018-05-24T11:12:48.358Z,19.48
2018-05-24T11:13:48.569Z,19.47
2018-05-24T11:14:48.743Z,19.59
2018-05-24T11:15:48.926Z,19.62
2018-05-24T11:16:49.133Z,19.69
2018-05-24T11:17:49.314Z,19.64
2018-05-24T11:18:49.529Z,19.63
2018-05-24T11:19:49.685Z,19.69
2018-05-24T11:20:49.907Z,19.59
2018-05-24T11:21:50.086Z,19.55
2018-05-24T11:22:51.156Z,19.64
2018-05-24T11:23:51.512Z,19.44
2018-05-24T11:24:51.043Z,19.54
2018-05-24T11:25:50.800Z,19.49
2018-05-24T11:26:50.855Z,19.52
2018-05-24T11:27:51.058Z,19.58
2018-05-24T11:28:51.256Z,19.67
2018-05-24T11:29:51.451Z,19.66
2018-05-24T11:30:53.367Z,19.64
2018-05-24T11:31:53.827Z,19.69
2018-05-24T11:32:53.911Z,19.69
2018-05-24T11:33:54.116Z,19.70
2018-05-24T11:34:53.110Z,19.55
2018-05-24T11:35:54.021Z,19.54
2018-05-24T11:36:53.960Z,19.44
2018-05-24T11:37:53.756Z,19.40
2018-05-24T11:38:54.863Z,19.33
2018-05-24T11:39:54.186Z,19.26
2018-05-24T11:40:53.307Z,19.24
2018-05-24T11:41:53.890Z,19.26
2018-05-24T11:42:53.666Z,19.27
2018-05-24T11:43:53.850Z,19.27
2018-05-24T11:44:54.055Z,19.33
2018-05-24T11:45:54.268Z,19.40
2018-05-24T11:46:54.596Z,19.31
2018-05-24T11:47:54.795Z,19.33
2018-05-24T11:48:56.268Z,19.36
2018-05-24T11:49:56.672Z,19.24
2018-05-24T11:50:55.133Z,19.26
2018-05-24T11:51:55.381Z,19.34
2018-05-24T11:52:55.518Z,19.22
2018-05-24T11:53:55.707Z,19.29
2018-05-24T11:54:57.677Z,19.39
2018-05-24T11:55:59.847Z,19.29
2018-05-24T11:56:58.305Z,19.22
2018-05-24T11:57:58.700Z,19.02
2018-05-24T11:58:56.581Z,19.12
2018-05-24T11:59:56.764Z,19.12
2018-05-24T12:00:56.958Z,19.07
2018-05-24T12:01:57.135Z,19.12
2018-05-24T12:02:57.380Z,19.14
2018-05-24T12:03:57.977Z,19.21
2018-05-24T12:04:57.660Z,19.07
2018-05-24T12:05:57.982Z,19.18
2018-05-24T12:06:58.016Z,19.22
2018-05-24T12:07:58.211Z,19.26
2018-05-24T12:08:58.416Z,19.27
2018-05-24T12:09:58.617Z,19.14
2018-05-24T12:10:58.865Z,19.24
2018-05-24T12:11:59.038Z,19.21
2018-05-24T12:12:59.228Z,19.27
2018-05-24T12:13:59.450Z,19.18
2018-05-24T12:14:59.605Z,19.21
2018-05-24T12:15:59.791Z,19.12
2018-05-24T12:16:59.995Z,19.16
2018-05-24T12:18:00.160Z,19.22
2018-05-24T12:19:00.339Z,19.30
2018-05-24T12:20:03.953Z,19.30
2018-05-24T12:21:03.889Z,19.37
2018-05-24T12:22:01.048Z,19.36
2018-05-24T12:23:01.075Z,19.51
2018-05-24T12:24:04.451Z,19.34
2018-05-24T12:25:02.767Z,19.34
2018-05-24T12:26:02.362Z,19.37
2018-05-24T12:27:03.496Z,19.29
2018-05-24T12:28:02.827Z,19.40
2018-05-24T12:29:03.452Z,19.41
2018-05-24T12:30:03.456Z,19.41
2018-05-24T12:31:02.448Z,19.52
2018-05-24T12:32:04.585Z,19.48
2018-05-24T12:33:03.836Z,19.48
2018-05-24T12:34:03.835Z,19.44
2018-05-24T12:35:04.317Z,19.37
2018-05-24T12:36:03.281Z,19.40
2018-05-24T12:37:03.467Z,19.44
2018-05-24T12:38:06.244Z,19.37
2018-05-24T12:39:04.413Z,19.33
2018-05-24T12:40:04.849Z,19.40
2018-05-24T12:41:05.301Z,19.40
2018-05-24T12:42:06.316Z,19.33
2018-05-24T12:43:04.372Z,19.39
2018-05-24T12:44:06.276Z,19.37
2018-05-24T12:45:05.217Z,19.40
2018-05-24T12:46:05.473Z,19.40
2018-05-24T12:47:05.076Z,19.33
2018-05-24T12:48:05.437Z,19.40
2018-05-24T12:49:05.517Z,19.33
2018-05-24T12:50:05.750Z,19.33
2018-05-24T12:51:05.769Z,19.39
2018-05-24T12:52:05.973Z,19.37
2018-05-24T12:53:06.165Z,19.41
2018-05-24T12:54:06.353Z,19.59
2018-05-24T12:55:06.522Z,19.58